sensor_id;sensor_type;location;lat;lon;timestamp;P1;durP1;ratioP1;P2;durP2;ratioP2
22417;SDS011;11376;50.932;4.442;2022-08-30T00:01:55;7.78;;;2.67;;
22417;SDS011;11376;50.932;4.442;2022-08-30T00:04:21;6.20;;;2.65;;
22417;SDS011;11376;50.932;4.442;2022-08-30T00:06:46;8.68;;;3.22;;
22417;SDS011;11376;50.932;4.442;2022-08-30T00:09:12;7.72;;;2.65;;
22417;SDS011;11376;50.932;4.442;2022-08-30T00:11:38;8.07;;;2.60;;
22417;SDS011;11376;50.932;4.442;2022-08-30T00:14:04;12.00;;;2.92;;
22417;SDS011;11376;50.932;4.442;2022-08-30T00:16:31;8.50;;;2.90;;
22417;SDS011;11376;50.932;4.442;2022-08-30T00:18:57;7.25;;;2.80;;
22417;SDS011;11376;50.932;4.442;2022-08-30T00:21:23;6.25;;;2.92;;
22417;SDS011;11376;50.932;4.442;2022-08-30T00:23:51;9.57;;;3.15;;
22417;SDS011;11376;50.932;4.442;2022-08-30T00:26:16;7.40;;;2.88;;
22417;SDS011;11376;50.932;4.442;2022-08-30T00:28:42;8.63;;;2.90;;
22417;SDS011;11376;50.932;4.442;2022-08-30T00:31:08;8.93;;;2.72;;
22417;SDS011;11376;50.932;4.442;2022-08-30T00:33:34;8.10;;;2.70;;
22417;SDS011;11376;50.932;4.442;2022-08-30T00:36:00;5.50;;;2.58;;
22417;SDS011;11376;50.932;4.442;2022-08-30T00:38:26;5.47;;;2.80;;
22417;SDS011;11376;50.932;4.442;2022-08-30T00:40:52;5.55;;;2.78;;
22417;SDS011;11376;50.932;4.442;2022-08-30T00:43:19;7.88;;;3.15;;
22417;SDS011;11376;50.932;4.442;2022-08-30T00:45:48;7.30;;;2.97;;
22417;SDS011;11376;50.932;4.442;2022-08-30T00:48:14;6.93;;;2.60;;
22417;SDS011;11376;50.932;4.442;2022-08-30T00:50:42;9.55;;;2.80;;
22417;SDS011;11376;50.932;4.442;2022-08-30T00:53:17;10.75;;;2.95;;
22417;SDS011;11376;50.932;4.442;2022-08-30T00:55:45;7.35;;;2.83;;
22417;SDS011;11376;50.932;4.442;2022-08-30T00:58:13;11.07;;;3.08;;
22417;SDS011;11376;50.932;4.442;2022-08-30T01:00:45;11.00;;;2.78;;
22417;SDS011;11376;50.932;4.442;2022-08-30T01:03:13;12.55;;;3.22;;
22417;SDS011;11376;50.932;4.442;2022-08-30T01:05:39;8.65;;;3.10;;
22417;SDS011;11376;50.932;4.442;2022-08-30T01:08:05;6.45;;;2.45;;
22417;SDS011;11376;50.932;4.442;2022-08-30T01:10:32;9.38;;;2.70;;
22417;SDS011;11376;50.932;4.442;2022-08-30T01:12:58;6.40;;;2.78;;
22417;SDS011;11376;50.932;4.442;2022-08-30T01:15:26;11.50;;;3.58;;
22417;SDS011;11376;50.932;4.442;2022-08-30T01:17:52;7.38;;;2.97;;
22417;SDS011;11376;50.932;4.442;2022-08-30T01:20:23;7.07;;;2.90;;
22417;SDS011;11376;50.932;4.442;2022-08-30T01:22:59;7.95;;;3.08;;
22417;SDS011;11376;50.932;4.442;2022-08-30T01:25:37;7.43;;;2.60;;
22417;SDS011;11376;50.932;4.442;2022-08-30T01:28:07;6.57;;;2.92;;
22417;SDS011;11376;50.932;4.442;2022-08-30T01:30:35;8.98;;;2.85;;
22417;SDS011;11376;50.932;4.442;2022-08-30T01:33:03;10.43;;;3.00;;
22417;SDS011;11376;50.932;4.442;2022-08-30T01:35:34;9.25;;;3.10;;
22417;SDS011;11376;50.932;4.442;2022-08-30T01:38:08;10.02;;;2.90;;
22417;SDS011;11376;50.932;4.442;2022-08-30T01:40:35;11.13;;;3.20;;
22417;SDS011;11376;50.932;4.442;2022-08-30T01:43:01;13.18;;;3.53;;
22417;SDS011;11376;50.932;4.442;2022-08-30T01:45:26;9.07;;;3.00;;
22417;SDS011;11376;50.932;4.442;2022-08-30T01:47:52;7.38;;;3.28;;
22417;SDS011;11376;50.932;4.442;2022-08-30T01:50:18;8.43;;;3.22;;
22417;SDS011;11376;50.932;4.442;2022-08-30T01:52:43;9.75;;;3.15;;
22417;SDS011;11376;50.932;4.442;2022-08-30T01:55:09;14.80;;;3.42;;
22417;SDS011;11376;50.932;4.442;2022-08-30T01:57:34;8.48;;;3.22;;
22417;SDS011;11376;50.932;4.442;2022-08-30T02:00:00;7.00;;;3.28;;
22417;SDS011;11376;50.932;4.442;2022-08-30T02:02:26;10.63;;;3.28;;
22417;SDS011;11376;50.932;4.442;2022-08-30T02:04:54;9.48;;;3.35;;
22417;SDS011;11376;50.932;4.442;2022-08-30T02:07:20;5.90;;;3.00;;
22417;SDS011;11376;50.932;4.442;2022-08-30T02:09:48;9.73;;;3.05;;
22417;SDS011;11376;50.932;4.442;2022-08-30T02:12:15;7.22;;;3.35;;
22417;SDS011;11376;50.932;4.442;2022-08-30T02:14:40;10.95;;;3.40;;
22417;SDS011;11376;50.932;4.442;2022-08-30T02:17:07;7.63;;;3.55;;
22417;SDS011;11376;50.932;4.442;2022-08-30T02:19:34;10.35;;;3.50;;
22417;SDS011;11376;50.932;4.442;2022-08-30T02:22:00;11.00;;;3.38;;
22417;SDS011;11376;50.932;4.442;2022-08-30T02:24:25;9.30;;;3.08;;
22417;SDS011;11376;50.932;4.442;2022-08-30T02:26:51;10.20;;;3.25;;
22417;SDS011;11376;50.932;4.442;2022-08-30T02:29:18;10.30;;;3.50;;
22417;SDS011;11376;50.932;4.442;2022-08-30T02:31:45;10.65;;;3.50;;
22417;SDS011;11376;50.932;4.442;2022-08-30T02:34:10;9.45;;;3.38;;
22417;SDS011;11376;50.932;4.442;2022-08-30T02:36:36;9.40;;;3.30;;
22417;SDS011;11376;50.932;4.442;2022-08-30T02:39:04;10.20;;;3.17;;
22417;SDS011;11376;50.932;4.442;2022-08-30T02:41:31;7.45;;;3.30;;
22417;SDS011;11376;50.932;4.442;2022-08-30T02:43:56;8.35;;;3.60;;
22417;SDS011;11376;50.932;4.442;2022-08-30T02:46:24;5.43;;;3.33;;
22417;SDS011;11376;50.932;4.442;2022-08-30T02:48:50;10.65;;;3.70;;
22417;SDS011;11376;50.932;4.442;2022-08-30T02:51:16;8.05;;;3.95;;
22417;SDS011;11376;50.932;4.442;2022-08-30T02:53:42;9.85;;;3.60;;
22417;SDS011;11376;50.932;4.442;2022-08-30T02:56:08;6.95;;;3.10;;
22417;SDS011;11376;50.932;4.442;2022-08-30T02:58:34;7.32;;;3.38;;
22417;SDS011;11376;50.932;4.442;2022-08-30T03:01:00;8.65;;;3.55;;
22417;SDS011;11376;50.932;4.442;2022-08-30T03:03:26;8.02;;;3.50;;
22417;SDS011;11376;50.932;4.442;2022-08-30T03:05:52;7.00;;;3.38;;
22417;SDS011;11376;50.932;4.442;2022-08-30T03:08:17;11.40;;;3.40;;
22417;SDS011;11376;50.932;4.442;2022-08-30T03:10:43;8.93;;;3.55;;
22417;SDS011;11376;50.932;4.442;2022-08-30T03:13:09;9.13;;;3.63;;
22417;SDS011;11376;50.932;4.442;2022-08-30T03:15:36;8.85;;;3.85;;
22417;SDS011;11376;50.932;4.442;2022-08-30T03:18:03;6.45;;;3.53;;
22417;SDS011;11376;50.932;4.442;2022-08-30T03:20:29;8.52;;;3.47;;
22417;SDS011;11376;50.932;4.442;2022-08-30T03:22:54;8.10;;;3.38;;
22417;SDS011;11376;50.932;4.442;2022-08-30T03:25:20;8.13;;;3.58;;
22417;SDS011;11376;50.932;4.442;2022-08-30T03:27:46;9.82;;;3.42;;
22417;SDS011;11376;50.932;4.442;2022-08-30T03:30:13;8.93;;;3.53;;
22417;SDS011;11376;50.932;4.442;2022-08-30T03:32:39;7.75;;;3.63;;
22417;SDS011;11376;50.932;4.442;2022-08-30T03:35:06;9.32;;;3.63;;
22417;SDS011;11376;50.932;4.442;2022-08-30T03:37:33;8.85;;;3.80;;
22417;SDS011;11376;50.932;4.442;2022-08-30T03:39:59;14.68;;;3.97;;
22417;SDS011;11376;50.932;4.442;2022-08-30T03:42:25;7.95;;;3.60;;
22417;SDS011;11376;50.932;4.442;2022-08-30T03:44:50;10.93;;;3.60;;
22417;SDS011;11376;50.932;4.442;2022-08-30T03:47:16;9.60;;;4.13;;
22417;SDS011;11376;50.932;4.442;2022-08-30T03:49:43;10.18;;;3.67;;
22417;SDS011;11376;50.932;4.442;2022-08-30T03:52:08;8.30;;;4.10;;
22417;SDS011;11376;50.932;4.442;2022-08-30T03:54:34;11.68;;;3.55;;
22417;SDS011;11376;50.932;4.442;2022-08-30T03:57:00;10.30;;;4.03;;
22417;SDS011;11376;50.932;4.442;2022-08-30T03:59:25;7.57;;;3.42;;
22417;SDS011;11376;50.932;4.442;2022-08-30T04:01:51;9.20;;;3.67;;
22417;SDS011;11376;50.932;4.442;2022-08-30T04:04:17;9.90;;;3.85;;
22417;SDS011;11376;50.932;4.442;2022-08-30T04:06:43;10.32;;;3.97;;
22417;SDS011;11376;50.932;4.442;2022-08-30T04:09:09;7.70;;;3.63;;
22417;SDS011;11376;50.932;4.442;2022-08-30T04:11:34;9.68;;;3.65;;
22417;SDS011;11376;50.932;4.442;2022-08-30T04:14:00;7.78;;;3.45;;
22417;SDS011;11376;50.932;4.442;2022-08-30T04:16:26;10.65;;;3.95;;
22417;SDS011;11376;50.932;4.442;2022-08-30T04:18:52;12.30;;;4.00;;
22417;SDS011;11376;50.932;4.442;2022-08-30T04:21:17;8.90;;;3.80;;
22417;SDS011;11376;50.932;4.442;2022-08-30T04:23:43;6.78;;;3.75;;
22417;SDS011;11376;50.932;4.442;2022-08-30T04:26:09;10.02;;;3.53;;
22417;SDS011;11376;50.932;4.442;2022-08-30T04:28:35;9.02;;;3.60;;
22417;SDS011;11376;50.932;4.442;2022-08-30T04:31:07;10.00;;;3.83;;
22417;SDS011;11376;50.932;4.442;2022-08-30T04:33:35;9.95;;;3.55;;
22417;SDS011;11376;50.932;4.442;2022-08-30T04:36:01;6.72;;;3.70;;
22417;SDS011;11376;50.932;4.442;2022-08-30T04:38:29;8.88;;;3.90;;
22417;SDS011;11376;50.932;4.442;2022-08-30T04:40:55;9.45;;;3.80;;
22417;SDS011;11376;50.932;4.442;2022-08-30T04:43:20;10.82;;;3.90;;
22417;SDS011;11376;50.932;4.442;2022-08-30T04:45:46;8.18;;;3.58;;
22417;SDS011;11376;50.932;4.442;2022-08-30T04:48:12;9.95;;;4.07;;
22417;SDS011;11376;50.932;4.442;2022-08-30T04:50:37;9.20;;;3.67;;
22417;SDS011;11376;50.932;4.442;2022-08-30T04:53:03;9.30;;;4.03;;
22417;SDS011;11376;50.932;4.442;2022-08-30T04:55:29;7.40;;;3.78;;
22417;SDS011;11376;50.932;4.442;2022-08-30T04:57:55;8.07;;;3.83;;
22417;SDS011;11376;50.932;4.442;2022-08-30T05:00:21;9.43;;;3.92;;
22417;SDS011;11376;50.932;4.442;2022-08-30T05:02:46;8.88;;;3.90;;
22417;SDS011;11376;50.932;4.442;2022-08-30T05:05:12;11.00;;;4.00;;
22417;SDS011;11376;50.932;4.442;2022-08-30T05:07:57;7.55;;;3.83;;
22417;SDS011;11376;50.932;4.442;2022-08-30T05:10:23;7.63;;;3.80;;
22417;SDS011;11376;50.932;4.442;2022-08-30T05:12:51;7.55;;;3.72;;
22417;SDS011;11376;50.932;4.442;2022-08-30T05:15:17;7.03;;;3.72;;
22417;SDS011;11376;50.932;4.442;2022-08-30T05:17:44;9.00;;;4.00;;
22417;SDS011;11376;50.932;4.442;2022-08-30T05:20:10;7.85;;;3.70;;
22417;SDS011;11376;50.932;4.442;2022-08-30T05:22:37;9.05;;;4.63;;
22417;SDS011;11376;50.932;4.442;2022-08-30T05:25:04;10.10;;;4.15;;
22417;SDS011;11376;50.932;4.442;2022-08-30T05:27:31;9.85;;;4.32;;
22417;SDS011;11376;50.932;4.442;2022-08-30T05:29:56;7.60;;;4.22;;
22417;SDS011;11376;50.932;4.442;2022-08-30T05:32:22;10.75;;;3.70;;
22417;SDS011;11376;50.932;4.442;2022-08-30T05:34:48;15.63;;;4.18;;
22417;SDS011;11376;50.932;4.442;2022-08-30T05:37:14;8.18;;;3.92;;
22417;SDS011;11376;50.932;4.442;2022-08-30T05:39:40;9.57;;;4.18;;
22417;SDS011;11376;50.932;4.442;2022-08-30T05:42:05;11.30;;;4.30;;
22417;SDS011;11376;50.932;4.442;2022-08-30T05:44:31;8.38;;;3.88;;
22417;SDS011;11376;50.932;4.442;2022-08-30T05:46:57;9.43;;;3.97;;
22417;SDS011;11376;50.932;4.442;2022-08-30T05:49:22;10.32;;;4.20;;
22417;SDS011;11376;50.932;4.442;2022-08-30T05:51:48;9.30;;;4.45;;
22417;SDS011;11376;50.932;4.442;2022-08-30T05:54:13;8.18;;;4.50;;
22417;SDS011;11376;50.932;4.442;2022-08-30T05:56:40;7.88;;;3.75;;
22417;SDS011;11376;50.932;4.442;2022-08-30T05:59:09;7.22;;;3.47;;
22417;SDS011;11376;50.932;4.442;2022-08-30T06:01:37;8.77;;;4.32;;
22417;SDS011;11376;50.932;4.442;2022-08-30T06:04:05;7.57;;;3.97;;
22417;SDS011;11376;50.932;4.442;2022-08-30T06:06:32;9.68;;;3.70;;
22417;SDS011;11376;50.932;4.442;2022-08-30T06:09:00;8.63;;;3.95;;
22417;SDS011;11376;50.932;4.442;2022-08-30T06:14:48;14.43;;;4.10;;
22417;SDS011;11376;50.932;4.442;2022-08-30T06:17:14;8.50;;;3.88;;
22417;SDS011;11376;50.932;4.442;2022-08-30T06:19:39;10.95;;;4.60;;
22417;SDS011;11376;50.932;4.442;2022-08-30T06:22:05;11.05;;;4.20;;
22417;SDS011;11376;50.932;4.442;2022-08-30T06:24:30;7.50;;;4.38;;
22417;SDS011;11376;50.932;4.442;2022-08-30T06:26:56;9.27;;;4.15;;
22417;SDS011;11376;50.932;4.442;2022-08-30T06:29:21;11.43;;;4.32;;
22417;SDS011;11376;50.932;4.442;2022-08-30T06:31:47;8.13;;;3.80;;
22417;SDS011;11376;50.932;4.442;2022-08-30T06:34:14;7.88;;;4.28;;
22417;SDS011;11376;50.932;4.442;2022-08-30T06:36:40;10.50;;;4.28;;
22417;SDS011;11376;50.932;4.442;2022-08-30T06:39:06;8.07;;;3.80;;
22417;SDS011;11376;50.932;4.442;2022-08-30T06:41:33;6.65;;;3.45;;
22417;SDS011;11376;50.932;4.442;2022-08-30T06:44:00;11.98;;;4.43;;
22417;SDS011;11376;50.932;4.442;2022-08-30T06:46:29;8.70;;;3.78;;
22417;SDS011;11376;50.932;4.442;2022-08-30T06:48:56;9.82;;;3.70;;
22417;SDS011;11376;50.932;4.442;2022-08-30T06:51:23;7.80;;;3.63;;
22417;SDS011;11376;50.932;4.442;2022-08-30T06:53:54;7.60;;;3.90;;
22417;SDS011;11376;50.932;4.442;2022-08-30T06:56:20;8.30;;;3.90;;
22417;SDS011;11376;50.932;4.442;2022-08-30T06:58:46;10.05;;;3.60;;
22417;SDS011;11376;50.932;4.442;2022-08-30T07:01:13;9.57;;;4.07;;
22417;SDS011;11376;50.932;4.442;2022-08-30T07:03:41;7.47;;;4.05;;
22417;SDS011;11376;50.932;4.442;2022-08-30T07:06:07;7.22;;;4.10;;
22417;SDS011;11376;50.932;4.442;2022-08-30T07:08:34;9.98;;;3.67;;
22417;SDS011;11376;50.932;4.442;2022-08-30T07:11:00;7.60;;;3.97;;
22417;SDS011;11376;50.932;4.442;2022-08-30T07:13:26;7.72;;;4.00;;
22417;SDS011;11376;50.932;4.442;2022-08-30T07:15:52;8.55;;;4.00;;
22417;SDS011;11376;50.932;4.442;2022-08-30T07:18:18;8.07;;;3.63;;
22417;SDS011;11376;50.932;4.442;2022-08-30T07:21:10;9.77;;;3.70;;
22417;SDS011;11376;50.932;4.442;2022-08-30T07:23:37;9.43;;;3.85;;
22417;SDS011;11376;50.932;4.442;2022-08-30T07:26:09;6.88;;;3.70;;
22417;SDS011;11376;50.932;4.442;2022-08-30T07:28:37;10.45;;;3.95;;
22417;SDS011;11376;50.932;4.442;2022-08-30T07:31:05;10.13;;;3.60;;
22417;SDS011;11376;50.932;4.442;2022-08-30T07:33:31;6.13;;;3.72;;
22417;SDS011;11376;50.932;4.442;2022-08-30T07:35:57;7.47;;;2.90;;
22417;SDS011;11376;50.932;4.442;2022-08-30T07:38:24;8.55;;;3.50;;
22417;SDS011;11376;50.932;4.442;2022-08-30T07:40:50;8.35;;;4.07;;
22417;SDS011;11376;50.932;4.442;2022-08-30T07:43:15;6.55;;;3.50;;
22417;SDS011;11376;50.932;4.442;2022-08-30T07:45:41;9.75;;;3.50;;
22417;SDS011;11376;50.932;4.442;2022-08-30T07:48:07;5.53;;;3.33;;
22417;SDS011;11376;50.932;4.442;2022-08-30T07:50:35;9.32;;;3.38;;
22417;SDS011;11376;50.932;4.442;2022-08-30T07:53:01;8.38;;;3.45;;
22417;SDS011;11376;50.932;4.442;2022-08-30T07:55:27;11.38;;;3.50;;
22417;SDS011;11376;50.932;4.442;2022-08-30T07:57:53;5.03;;;3.00;;
22417;SDS011;11376;50.932;4.442;2022-08-30T08:00:19;5.28;;;3.28;;
22417;SDS011;11376;50.932;4.442;2022-08-30T08:02:44;6.25;;;3.20;;
22417;SDS011;11376;50.932;4.442;2022-08-30T08:05:10;6.70;;;3.40;;
22417;SDS011;11376;50.932;4.442;2022-08-30T08:07:38;6.30;;;3.15;;
22417;SDS011;11376;50.932;4.442;2022-08-30T08:10:04;7.28;;;3.30;;
22417;SDS011;11376;50.932;4.442;2022-08-30T08:12:30;7.38;;;3.08;;
22417;SDS011;11376;50.932;4.442;2022-08-30T08:14:56;12.60;;;3.17;;
22417;SDS011;11376;50.932;4.442;2022-08-30T08:17:22;8.90;;;2.97;;
22417;SDS011;11376;50.932;4.442;2022-08-30T08:19:47;5.97;;;3.20;;
22417;SDS011;11376;50.932;4.442;2022-08-30T08:22:13;8.18;;;2.80;;
22417;SDS011;11376;50.932;4.442;2022-08-30T08:24:39;6.80;;;3.22;;
22417;SDS011;11376;50.932;4.442;2022-08-30T08:27:04;8.02;;;2.95;;
22417;SDS011;11376;50.932;4.442;2022-08-30T08:29:30;6.45;;;2.72;;
22417;SDS011;11376;50.932;4.442;2022-08-30T08:31:56;6.35;;;2.35;;
22417;SDS011;11376;50.932;4.442;2022-08-30T08:34:24;5.95;;;2.80;;
22417;SDS011;11376;50.932;4.442;2022-08-30T08:36:50;5.22;;;2.70;;
22417;SDS011;11376;50.932;4.442;2022-08-30T08:39:16;6.63;;;2.97;;
22417;SDS011;11376;50.932;4.442;2022-08-30T08:41:54;5.10;;;2.58;;
22417;SDS011;11376;50.932;4.442;2022-08-30T08:49:46;6.15;;;2.92;;
22417;SDS011;11376;50.932;4.442;2022-08-30T08:52:20;7.97;;;2.65;;
22417;SDS011;11376;50.932;4.442;2022-08-30T08:55:10;6.47;;;2.65;;
22417;SDS011;11376;50.932;4.442;2022-08-30T08:57:39;8.73;;;2.70;;
22417;SDS011;11376;50.932;4.442;2022-08-30T09:00:06;4.80;;;2.47;;
22417;SDS011;11376;50.932;4.442;2022-08-30T09:02:47;6.40;;;2.50;;
22417;SDS011;11376;50.932;4.442;2022-08-30T09:05:22;7.43;;;2.78;;
22417;SDS011;11376;50.932;4.442;2022-08-30T09:07:53;5.63;;;2.42;;
22417;SDS011;11376;50.932;4.442;2022-08-30T09:10:26;5.65;;;2.60;;
22417;SDS011;11376;50.932;4.442;2022-08-30T09:12:55;9.48;;;2.75;;
22417;SDS011;11376;50.932;4.442;2022-08-30T09:15:26;9.88;;;2.40;;
22417;SDS011;11376;50.932;4.442;2022-08-30T09:17:57;5.90;;;2.20;;
22417;SDS011;11376;50.932;4.442;2022-08-30T09:20:32;8.55;;;2.35;;
22417;SDS011;11376;50.932;4.442;2022-08-30T09:28:23;9.63;;;2.13;;
22417;SDS011;11376;50.932;4.442;2022-08-30T09:33:41;5.70;;;1.77;;
22417;SDS011;11376;50.932;4.442;2022-08-30T09:36:25;4.35;;;2.08;;
22417;SDS011;11376;50.932;4.442;2022-08-30T09:39:12;5.30;;;2.17;;
22417;SDS011;11376;50.932;4.442;2022-08-30T09:41:46;4.70;;;1.90;;
22417;SDS011;11376;50.932;4.442;2022-08-30T09:44:21;6.10;;;2.13;;
22417;SDS011;11376;50.932;4.442;2022-08-30T09:46:54;3.90;;;1.50;;
22417;SDS011;11376;50.932;4.442;2022-08-30T09:51:59;5.90;;;2.00;;
22417;SDS011;11376;50.932;4.442;2022-08-30T09:57:27;4.90;;;1.60;;
22417;SDS011;11376;50.932;4.442;2022-08-30T10:00:20;5.68;;;1.55;;
22417;SDS011;11376;50.932;4.442;2022-08-30T10:03:13;4.25;;;1.70;;
22417;SDS011;11376;50.932;4.442;2022-08-30T10:06:06;5.15;;;1.83;;
22417;SDS011;11376;50.932;4.442;2022-08-30T10:11:26;6.28;;;1.90;;
22417;SDS011;11376;50.932;4.442;2022-08-30T10:14:25;7.28;;;1.88;;
22417;SDS011;11376;50.932;4.442;2022-08-30T10:22:35;4.93;;;1.83;;
22417;SDS011;11376;50.932;4.442;2022-08-30T10:28:21;3.22;;;1.60;;
22417;SDS011;11376;50.932;4.442;2022-08-30T10:31:00;5.57;;;1.73;;
22417;SDS011;11376;50.932;4.442;2022-08-30T10:33:33;4.53;;;1.50;;
22417;SDS011;11376;50.932;4.442;2022-08-30T10:36:03;4.05;;;1.50;;
22417;SDS011;11376;50.932;4.442;2022-08-30T10:38:35;3.97;;;1.52;;
22417;SDS011;11376;50.932;4.442;2022-08-30T10:44:00;6.55;;;1.52;;
22417;SDS011;11376;50.932;4.442;2022-08-30T10:47:46;7.15;;;1.75;;
22417;SDS011;11376;50.932;4.442;2022-08-30T10:55:23;3.10;;;1.70;;
22417;SDS011;11376;50.932;4.442;2022-08-30T10:57:52;3.80;;;1.48;;
22417;SDS011;11376;50.932;4.442;2022-08-30T11:00:27;4.25;;;1.30;;
22417;SDS011;11376;50.932;4.442;2022-08-30T11:03:13;7.60;;;1.60;;
22417;SDS011;11376;50.932;4.442;2022-08-30T11:05:53;3.10;;;1.27;;
22417;SDS011;11376;50.932;4.442;2022-08-30T11:08:51;5.20;;;1.33;;
22417;SDS011;11376;50.932;4.442;2022-08-30T11:14:08;4.15;;;1.60;;
22417;SDS011;11376;50.932;4.442;2022-08-30T11:16:42;4.03;;;1.48;;
22417;SDS011;11376;50.932;4.442;2022-08-30T11:19:20;7.18;;;1.55;;
22417;SDS011;11376;50.932;4.442;2022-08-30T11:21:50;3.30;;;1.13;;
22417;SDS011;11376;50.932;4.442;2022-08-30T11:24:18;3.53;;;1.40;;
22417;SDS011;11376;50.932;4.442;2022-08-30T11:29:28;3.55;;;1.40;;
22417;SDS011;11376;50.932;4.442;2022-08-30T11:40:00;4.25;;;1.25;;
22417;SDS011;11376;50.932;4.442;2022-08-30T11:42:47;5.38;;;1.52;;
22417;SDS011;11376;50.932;4.442;2022-08-30T11:47:47;4.30;;;1.33;;
22417;SDS011;11376;50.932;4.442;2022-08-30T11:59:02;5.72;;;1.13;;
22417;SDS011;11376;50.932;4.442;2022-08-30T12:02:05;4.75;;;1.30;;
22417;SDS011;11376;50.932;4.442;2022-08-30T12:04:41;5.28;;;1.48;;
22417;SDS011;11376;50.932;4.442;2022-08-30T12:07:09;3.53;;;1.38;;
22417;SDS011;11376;50.932;4.442;2022-08-30T12:12:08;3.38;;;1.20;;
22417;SDS011;11376;50.932;4.442;2022-08-30T12:20:22;8.10;;;1.50;;
22417;SDS011;11376;50.932;4.442;2022-08-30T12:23:30;2.97;;;1.20;;
22417;SDS011;11376;50.932;4.442;2022-08-30T12:31:38;7.40;;;1.45;;
22417;SDS011;11376;50.932;4.442;2022-08-30T12:34:21;7.22;;;1.48;;
22417;SDS011;11376;50.932;4.442;2022-08-30T12:36:49;6.00;;;2.05;;
22417;SDS011;11376;50.932;4.442;2022-08-30T12:39:21;4.63;;;1.58;;
22417;SDS011;11376;50.932;4.442;2022-08-30T12:41:52;6.43;;;1.52;;
22417;SDS011;11376;50.932;4.442;2022-08-30T12:44:22;8.18;;;1.45;;
22417;SDS011;11376;50.932;4.442;2022-08-30T12:46:51;8.38;;;1.60;;
22417;SDS011;11376;50.932;4.442;2022-08-30T12:49:23;8.68;;;1.60;;
22417;SDS011;11376;50.932;4.442;2022-08-30T12:51:52;5.47;;;1.70;;
22417;SDS011;11376;50.932;4.442;2022-08-30T12:54:20;3.85;;;1.25;;
22417;SDS011;11376;50.932;4.442;2022-08-30T12:56:58;3.95;;;1.17;;
22417;SDS011;11376;50.932;4.442;2022-08-30T13:02:19;2.47;;;1.10;;
22417;SDS011;11376;50.932;4.442;2022-08-30T13:04:49;2.95;;;1.15;;
22417;SDS011;11376;50.932;4.442;2022-08-30T13:07:24;3.88;;;1.30;;
22417;SDS011;11376;50.932;4.442;2022-08-30T13:09:58;6.32;;;1.50;;
22417;SDS011;11376;50.932;4.442;2022-08-30T13:12:27;4.22;;;1.27;;
22417;SDS011;11376;50.932;4.442;2022-08-30T13:14:52;4.40;;;1.05;;
22417;SDS011;11376;50.932;4.442;2022-08-30T13:17:44;4.65;;;1.10;;
22417;SDS011;11376;50.932;4.442;2022-08-30T13:22:37;1.60;;;1.05;;
22417;SDS011;11376;50.932;4.442;2022-08-30T13:25:05;3.10;;;1.40;;
22417;SDS011;11376;50.932;4.442;2022-08-30T13:27:32;4.00;;;1.17;;
22417;SDS011;11376;50.932;4.442;2022-08-30T13:30:07;7.45;;;1.30;;
22417;SDS011;11376;50.932;4.442;2022-08-30T13:32:34;3.55;;;1.38;;
22417;SDS011;11376;50.932;4.442;2022-08-30T13:35:02;4.47;;;1.42;;
22417;SDS011;11376;50.932;4.442;2022-08-30T13:37:29;5.00;;;1.30;;
22417;SDS011;11376;50.932;4.442;2022-08-30T13:39:56;4.32;;;1.10;;
22417;SDS011;11376;50.932;4.442;2022-08-30T13:42:21;4.97;;;1.00;;
22417;SDS011;11376;50.932;4.442;2022-08-30T13:44:47;2.45;;;1.10;;
22417;SDS011;11376;50.932;4.442;2022-08-30T13:47:13;3.40;;;1.20;;
22417;SDS011;11376;50.932;4.442;2022-08-30T13:49:40;2.75;;;1.10;;
22417;SDS011;11376;50.932;4.442;2022-08-30T13:52:08;3.67;;;1.17;;
22417;SDS011;11376;50.932;4.442;2022-08-30T13:54:36;3.53;;;1.20;;
22417;SDS011;11376;50.932;4.442;2022-08-30T13:57:01;3.88;;;1.00;;
22417;SDS011;11376;50.932;4.442;2022-08-30T13:59:27;2.45;;;1.20;;
22417;SDS011;11376;50.932;4.442;2022-08-30T14:01:57;3.92;;;1.10;;
22417;SDS011;11376;50.932;4.442;2022-08-30T14:04:24;3.88;;;0.85;;
22417;SDS011;11376;50.932;4.442;2022-08-30T14:06:49;2.70;;;0.93;;
22417;SDS011;11376;50.932;4.442;2022-08-30T14:09:15;3.85;;;1.10;;
22417;SDS011;11376;50.932;4.442;2022-08-30T14:11:41;5.43;;;1.20;;
22417;SDS011;11376;50.932;4.442;2022-08-30T14:14:07;5.22;;;1.55;;
22417;SDS011;11376;50.932;4.442;2022-08-30T14:16:34;2.88;;;1.00;;
22417;SDS011;11376;50.932;4.442;2022-08-30T14:19:02;2.53;;;0.95;;
22417;SDS011;11376;50.932;4.442;2022-08-30T14:21:28;5.03;;;1.13;;
22417;SDS011;11376;50.932;4.442;2022-08-30T14:23:54;2.72;;;1.00;;
22417;SDS011;11376;50.932;4.442;2022-08-30T14:26:23;3.17;;;1.02;;
22417;SDS011;11376;50.932;4.442;2022-08-30T14:28:52;6.15;;;1.08;;
22417;SDS011;11376;50.932;4.442;2022-08-30T14:31:18;6.07;;;1.20;;
22417;SDS011;11376;50.932;4.442;2022-08-30T14:33:44;3.38;;;1.17;;
22417;SDS011;11376;50.932;4.442;2022-08-30T14:36:10;4.18;;;1.27;;
22417;SDS011;11376;50.932;4.442;2022-08-30T14:38:36;4.30;;;1.10;;
22417;SDS011;11376;50.932;4.442;2022-08-30T14:41:03;3.30;;;1.10;;
22417;SDS011;11376;50.932;4.442;2022-08-30T14:43:29;5.10;;;1.42;;
22417;SDS011;11376;50.932;4.442;2022-08-30T14:45:56;3.70;;;1.23;;
22417;SDS011;11376;50.932;4.442;2022-08-30T14:48:22;6.75;;;1.10;;
22417;SDS011;11376;50.932;4.442;2022-08-30T14:50:48;4.82;;;1.10;;
22417;SDS011;11376;50.932;4.442;2022-08-30T14:53:14;2.95;;;1.20;;
22417;SDS011;11376;50.932;4.442;2022-08-30T14:55:39;4.65;;;1.30;;
22417;SDS011;11376;50.932;4.442;2022-08-30T14:58:05;3.00;;;1.30;;
22417;SDS011;11376;50.932;4.442;2022-08-30T15:00:32;3.72;;;1.00;;
22417;SDS011;11376;50.932;4.442;2022-08-30T15:02:58;4.47;;;0.93;;
22417;SDS011;11376;50.932;4.442;2022-08-30T15:05:24;2.42;;;1.25;;
22417;SDS011;11376;50.932;4.442;2022-08-30T15:07:49;4.60;;;1.10;;
22417;SDS011;11376;50.932;4.442;2022-08-30T15:10:15;4.10;;;1.05;;
22417;SDS011;11376;50.932;4.442;2022-08-30T15:12:47;8.07;;;1.23;;
22417;SDS011;11376;50.932;4.442;2022-08-30T15:15:14;3.60;;;1.20;;
22417;SDS011;11376;50.932;4.442;2022-08-30T15:17:43;3.97;;;1.08;;
22417;SDS011;11376;50.932;4.442;2022-08-30T15:20:09;3.97;;;1.00;;
22417;SDS011;11376;50.932;4.442;2022-08-30T15:22:35;2.92;;;1.10;;
22417;SDS011;11376;50.932;4.442;2022-08-30T15:25:01;3.45;;;0.80;;
22417;SDS011;11376;50.932;4.442;2022-08-30T15:27:27;4.10;;;0.77;;
22417;SDS011;11376;50.932;4.442;2022-08-30T15:29:53;5.13;;;1.35;;
22417;SDS011;11376;50.932;4.442;2022-08-30T15:32:19;5.90;;;1.10;;
22417;SDS011;11376;50.932;4.442;2022-08-30T15:34:44;3.72;;;0.98;;
22417;SDS011;11376;50.932;4.442;2022-08-30T15:37:10;3.38;;;0.85;;
22417;SDS011;11376;50.932;4.442;2022-08-30T15:41:01;4.55;;;1.08;;
22417;SDS011;11376;50.932;4.442;2022-08-30T15:43:28;4.05;;;0.88;;
22417;SDS011;11376;50.932;4.442;2022-08-30T15:45:54;3.38;;;0.73;;
22417;SDS011;11376;50.932;4.442;2022-08-30T15:48:20;6.80;;;1.20;;
22417;SDS011;11376;50.932;4.442;2022-08-30T15:50:55;2.63;;;1.08;;
22417;SDS011;11376;50.932;4.442;2022-08-30T15:53:22;5.82;;;1.00;;
22417;SDS011;11376;50.932;4.442;2022-08-30T15:55:48;4.35;;;1.08;;
22417;SDS011;11376;50.932;4.442;2022-08-30T15:58:13;6.00;;;1.00;;
22417;SDS011;11376;50.932;4.442;2022-08-30T16:00:39;4.78;;;0.90;;
22417;SDS011;11376;50.932;4.442;2022-08-30T16:03:05;2.40;;;1.10;;
22417;SDS011;11376;50.932;4.442;2022-08-30T16:05:30;3.55;;;1.17;;
22417;SDS011;11376;50.932;4.442;2022-08-30T16:07:56;4.30;;;1.15;;
22417;SDS011;11376;50.932;4.442;2022-08-30T16:10:22;9.15;;;1.30;;
22417;SDS011;11376;50.932;4.442;2022-08-30T16:12:48;1.90;;;1.00;;
22417;SDS011;11376;50.932;4.442;2022-08-30T16:15:14;4.57;;;1.35;;
22417;SDS011;11376;50.932;4.442;2022-08-30T16:17:39;4.25;;;1.20;;
22417;SDS011;11376;50.932;4.442;2022-08-30T16:20:05;3.65;;;1.05;;
22417;SDS011;11376;50.932;4.442;2022-08-30T16:22:32;5.90;;;1.02;;